Lake City, Kentucky
Current Conditions -  °F | °C
As of 12:15 AM on Thursday 23 Oct 2014 (Local Time) from K5M9 Reporting Station
Clear Clear  
Wind Chill: 44°   Ceiling: Unl
Heat Index: 44°   Visibility: 10mi
Dew Point: 39°   Wind: 3mph
Humidity: 84%   Direction: 40°NE
Pressure: 30.23"   Gusts: NA
Location:  37.0861°N, 88.2694°W
Report Text: K5M9 230515Z AUTO 04003KT 10SM CLR 07/04 A3023 RMK AO2 T00670041
Loading
Personal Weather Stations






























Interactive Weather Map
Tropical Storm Tracking
New forecast layout! Learn more

10-Day Weather Forecast

Advertisements
Track Severe Weather on mobile